Time;durP1;ratioP1;P1;durP2;ratioP2;P2;SDS_P1;SDS_P2;PMS_P1;PMS_P2;Temp;Humidity;BMP_temperature;BMP_pressure;BME280_temperature;BME280_humidity;BME280_pressure;Samples;Min_cycle;Max_cycle;Signal;HPM_P1;HPM_P2
2022/08/04 00:01:07;;;;;;;10.65;2.78;;;26.10;96.90;;;;;;7338747;19;110143;-82
2022/08/04 00:04:02;;;;;;;7.00;2.17;;;26.10;97.10;;;;;;7337832;19;109672;-82
2022/08/04 00:06:47;;;;;;;9.70;2.55;;;26.00;97.30;;;;;;7334078;19;110824;-82
2022/08/04 00:09:46;;;;;;;7.20;2.20;;;25.90;97.50;;;;;;7332359;19;111825;-82
2022/08/04 00:12:16;;;;;;;9.65;2.78;;;25.90;97.40;;;;;;7332424;19;110335;-82
2022/08/04 00:14:50;;;;;;;8.85;2.80;;;25.90;97.70;;;;;;7337016;19;113530;-83
2022/08/04 00:17:24;;;;;;;7.70;2.60;;;25.80;97.70;;;;;;7332126;19;109588;-82
2022/08/04 00:20:03;;;;;;;7.38;2.83;;;25.80;98.00;;;;;;7331190;19;109642;-83
2022/08/04 00:22:33;;;;;;;14.10;2.63;;;25.70;98.00;;;;;;7331976;19;111185;-83
2022/08/04 00:25:03;;;;;;;7.88;2.90;;;25.60;98.20;;;;;;7331589;19;111033;-82
2022/08/04 00:27:31;;;;;;;7.55;2.35;;;25.60;98.20;;;;;;7331653;19;110443;-82
2022/08/04 00:30:02;;;;;;;7.78;2.30;;;25.60;98.10;;;;;;7334425;19;111459;-82
2022/08/04 00:32:30;;;;;;;7.55;2.55;;;25.60;98.20;;;;;;7338305;19;109762;-82
2022/08/04 00:35:01;;;;;;;5.85;2.47;;;25.50;98.30;;;;;;7336659;19;110548;-82
2022/08/04 00:37:28;;;;;;;8.10;2.92;;;25.50;98.50;;;;;;7343464;19;110569;-82
2022/08/04 00:39:56;;;;;;;9.38;2.60;;;25.40;98.60;;;;;;7338753;19;109833;-83
2022/08/04 00:42:42;;;;;;;12.40;3.28;;;25.30;98.60;;;;;;7337650;19;110157;-82
2022/08/04 00:45:35;;;;;;;10.23;3.20;;;25.30;98.70;;;;;;7340175;19;110444;-82
2022/08/04 00:48:41;;;;;;;7.95;3.47;;;25.30;98.90;;;;;;7341009;19;112024;-82
2022/08/04 00:51:19;;;;;;;7.47;2.90;;;25.20;99.10;;;;;;7341502;19;109588;-82
2022/08/04 00:53:58;;;;;;;8.27;2.83;;;25.20;99.00;;;;;;7342446;19;110249;-82
2022/08/04 00:56:54;;;;;;;9.23;2.75;;;25.20;99.10;;;;;;7340764;19;110831;-82
2022/08/04 00:59:45;;;;;;;7.35;2.75;;;25.10;99.20;;;;;;7341027;19;111245;-81
2022/08/04 01:02:27;;;;;;;12.30;3.03;;;25.10;99.10;;;;;;7347228;19;109819;-82
2022/08/04 01:05:02;;;;;;;7.82;2.50;;;25.00;99.20;;;;;;7340505;19;110110;-82
2022/08/04 01:07:47;;;;;;;8.45;2.00;;;24.90;99.60;;;;;;7342129;19;110291;-81
2022/08/04 01:10:20;;;;;;;7.43;2.50;;;24.90;99.50;;;;;;7338769;19;111020;-82
2022/08/04 01:13:10;;;;;;;9.07;2.35;;;24.90;99.70;;;;;;7341417;19;111140;-82
2022/08/04 01:15:44;;;;;;;6.07;2.50;;;24.80;99.80;;;;;;7341186;19;109803;-81
2022/08/04 01:18:36;;;;;;;11.90;2.90;;;24.60;99.90;;;;;;7341051;19;110340;-81
2022/08/04 01:21:33;;;;;;;5.43;2.80;;;24.60;99.90;;;;;;7341453;19;110597;-82
2022/08/04 01:24:08;;;;;;;7.53;3.50;;;24.50;99.90;;;;;;7340801;19;109586;-81
2022/08/04 01:26:42;;;;;;;9.35;3.70;;;24.40;99.90;;;;;;7346400;19;110467;-81
2022/08/04 01:29:25;;;;;;;;;;;24.20;99.90;;;;;;7342643;19;109594;-81
2022/08/04 01:32:23;;;;;;;16.25;5.75;;;24.10;99.90;;;;;;7340801;19;110471;-81
2022/08/04 01:35:00;;;;;;;18.65;6.57;;;24.10;99.90;;;;;;7338327;19;111142;-82
2022/08/04 01:37:48;;;;;;;25.00;7.55;;;24.00;99.90;;;;;;7339561;19;110082;-82
2022/08/04 01:40:16;;;;;;;61.78;17.77;;;24.00;99.90;;;;;;7339882;19;111506;-82
2022/08/04 01:42:44;;;;;;;43.35;14.38;;;23.90;99.90;;;;;;7337901;19;110444;-82
2022/08/04 01:45:13;;;;;;;33.83;10.32;;;23.80;99.90;;;;;;7338869;19;111559;-82
2022/08/04 01:47:48;;;;;;;35.10;11.85;;;23.70;99.90;;;;;;7344077;19;112448;-82
2022/08/04 01:50:16;;;;;;;32.25;10.70;;;23.80;99.90;;;;;;7339431;19;111097;-82
2022/08/04 01:52:44;;;;;;;16.15;6.03;;;23.70;99.90;;;;;;7335216;19;111804;-82
2022/08/04 01:55:17;;;;;;;15.23;6.72;;;23.60;99.90;;;;;;7340497;19;111220;-83
2022/08/04 01:57:50;;;;;;;17.38;6.40;;;23.70;99.90;;;;;;7340363;19;109917;-82
2022/08/04 02:00:23;;;;;;;18.08;6.60;;;23.60;99.90;;;;;;7338844;19;110766;-81
2022/08/04 02:02:50;;;;;;;17.48;6.50;;;23.60;99.90;;;;;;7340130;19;110229;-82
2022/08/04 02:05:20;;;;;;;10.70;4.90;;;23.60;99.90;;;;;;7341537;19;109308;-82
2022/08/04 02:08:08;;;;;;;10.10;3.67;;;23.60;99.90;;;;;;7338043;19;112559;-81
2022/08/04 02:10:41;;;;;;;12.65;4.18;;;23.70;99.90;;;;;;7346055;19;111158;-81
2022/08/04 02:13:27;;;;;;;6.78;3.03;;;23.60;99.90;;;;;;7338944;19;110795;-81
2022/08/04 02:16:07;;;;;;;13.35;4.60;;;23.60;99.90;;;;;;7340453;19;111264;-82
2022/08/04 02:18:58;;;;;;;7.55;3.97;;;23.50;99.90;;;;;;7340664;19;109703;-82
2022/08/04 02:21:28;;;;;;;9.20;3.85;;;23.50;99.90;;;;;;7338541;19;110416;-82
2022/08/04 02:24:13;;;;;;;6.57;3.17;;;23.50;99.90;;;;;;7339695;19;111239;-81
2022/08/04 02:26:47;;;;;;;13.45;4.53;;;23.50;99.90;;;;;;7341154;19;109384;-81
2022/08/04 02:31:55;;;;;;;6.78;3.92;;;23.40;99.90;;;;;;7334011;19;110589;-82
2022/08/04 02:34:32;;;;;;;8.05;3.80;;;23.50;99.90;;;;;;7341898;19;110876;-82
2022/08/04 02:37:01;;;;;;;6.78;3.25;;;23.50;99.90;;;;;;7338183;19;111591;-82
2022/08/04 02:39:34;;;;;;;8.45;3.40;;;23.50;99.90;;;;;;7339794;19;109454;-82
2022/08/04 02:42:16;;;;;;;11.75;3.88;;;23.40;99.90;;;;;;7339098;19;109544;-82
2022/08/04 02:44:49;;;;;;;7.90;3.45;;;23.30;99.90;;;;;;7353259;19;111235;-92
2022/08/04 02:47:24;;;;;;;8.60;3.10;;;23.30;99.90;;;;;;7361988;19;110292;-91
2022/08/04 02:50:13;;;;;;;7.47;3.90;;;23.30;99.90;;;;;;7361141;19;112522;-91
2022/08/04 02:52:57;;;;;;;7.10;3.47;;;23.30;99.90;;;;;;7334087;19;110364;-90
2022/08/04 02:55:28;;;;;;;8.52;3.83;;;23.30;99.90;;;;;;7356998;19;109167;-92
2022/08/04 02:57:57;;;;;;;9.38;3.53;;;23.20;99.90;;;;;;7365919;19;109738;-92
2022/08/04 03:00:25;;;;;;;8.10;3.75;;;23.20;99.90;;;;;;7361912;19;109344;-92
2022/08/04 03:03:29;;;;;;;12.98;4.53;;;23.20;99.90;;;;;;7357439;19;110926;-91
2022/08/04 03:06:12;;;;;;;12.25;5.10;;;23.20;99.90;;;;;;7346125;19;111299;-83
2022/08/04 03:09:09;;;;;;;16.13;6.88;;;23.10;99.90;;;;;;7339365;19;109323;-81
2022/08/04 03:12:12;;;;;;;;;;;22.90;99.90;;;;;;7339389;19;110808;-82
2022/08/04 03:14:43;;;;;;;76.63;24.63;;;22.70;99.90;;;;;;7339953;19;111252;31
2022/08/04 03:17:19;;;;;;;50.97;16.77;;;22.60;99.90;;;;;;7335214;19;110775;-81
2022/08/04 03:20:08;;;;;;;27.02;11.63;;;22.60;99.90;;;;;;7335218;19;110788;-82
2022/08/04 03:23:12;;;;;;;26.83;9.68;;;22.50;99.90;;;;;;7341621;19;112863;-82
2022/08/04 03:29:17;;;;;;;19.88;8.27;;;22.60;99.90;;;;;;7345148;19;109869;-92
2022/08/04 03:32:20;;;;;;;10.80;5.00;;;22.60;99.90;;;;;;7343409;19;109700;-96
2022/08/04 03:35:30;;;;;;;9.30;4.28;;;22.50;99.90;;;;;;7346155;19;109976;-94
2022/08/04 03:38:03;;;;;;;9.70;4.57;;;22.40;99.90;;;;;;7343918;19;110105;-93
2022/08/04 03:41:05;;;;;;;13.98;7.70;;;22.40;99.90;;;;;;7346434;19;110621;-92
2022/08/04 03:44:42;;;;;;;13.40;6.45;;;22.40;99.90;;;;;;7345721;19;109513;-95
2022/08/04 03:48:00;;;;;;;9.77;5.97;;;22.50;99.90;;;;;;7344652;19;109111;-94
2022/08/04 03:54:19;;;;;;;11.85;5.82;;;22.50;99.90;;;;;;7340224;19;109578;-95
2022/08/04 03:57:16;;;;;;;11.35;5.13;;;22.40;99.90;;;;;;7338620;19;109765;-93
2022/08/04 04:00:07;;;;;;;9.52;5.85;;;22.40;99.90;;;;;;7342071;19;109546;-94
2022/08/04 04:03:22;;;;;;;8.60;4.60;;;22.40;99.90;;;;;;7341260;19;109612;-94
2022/08/04 04:06:25;;;;;;;9.68;4.15;;;22.10;99.90;;;;;;7345949;19;109265;-94
2022/08/04 04:09:19;;;;;;;13.50;4.40;;;22.00;99.90;;;;;;7348773;19;109767;-94
2022/08/04 04:12:30;;;;;;;9.57;4.38;;;21.90;99.90;;;;;;7345481;19;110421;-95
2022/08/04 04:15:38;;;;;;;10.80;4.85;;;21.80;99.90;;;;;;7351694;19;109351;-94
2022/08/04 04:18:37;;;;;;;14.43;4.22;;;21.90;99.90;;;;;;7350140;19;109244;-94
2022/08/04 04:21:27;;;;;;;8.07;4.40;;;21.90;99.90;;;;;;7346952;19;109541;-93
2022/08/04 04:24:35;;;;;;;7.32;4.28;;;22.00;99.90;;;;;;7348636;19;109730;-95
2022/08/04 04:27:45;;;;;;;13.95;4.28;;;22.00;99.90;;;;;;7351173;19;110312;-95
2022/08/04 04:30:38;;;;;;;9.95;4.63;;;22.10;99.90;;;;;;7349168;19;109986;-94
2022/08/04 04:33:47;;;;;;;11.60;4.80;;;22.10;99.90;;;;;;7349285;19;109128;-95
2022/08/04 04:37:01;;;;;;;8.00;4.38;;;22.20;99.90;;;;;;7350299;19;109163;-95
2022/08/04 04:39:56;;;;;;;9.27;4.25;;;22.20;99.90;;;;;;7351111;19;109899;-95
2022/08/04 04:42:48;;;;;;;10.57;4.97;;;22.20;99.90;;;;;;7355248;19;109628;-94
2022/08/04 04:45:40;;;;;;;9.52;4.53;;;22.20;99.90;;;;;;7349580;19;109518;-94
2022/08/04 04:48:47;;;;;;;13.80;4.72;;;22.20;99.90;;;;;;7348398;19;109569;-96
2022/08/04 04:51:54;;;;;;;6.07;4.13;;;22.30;99.90;;;;;;7347732;19;110196;-94
2022/08/04 05:19:19;;;;;;;14.73;4.20;;;22.70;99.90;;;;;;7347182;19;109822;-80
2022/08/04 05:21:48;;;;;;;10.30;4.45;;;22.80;99.90;;;;;;7339337;19;111284;-80
2022/08/04 05:24:19;;;;;;;6.57;3.90;;;22.80;99.90;;;;;;7339334;19;109960;-79
2022/08/04 05:26:52;;;;;;;6.30;3.13;;;22.80;99.90;;;;;;7338718;19;109801;-79
2022/08/04 05:29:45;;;;;;;8.73;3.88;;;22.80;99.90;;;;;;7337442;19;110654;-80
2022/08/04 05:32:16;;;;;;;7.35;3.50;;;22.80;99.90;;;;;;7344817;19;109749;-81
2022/08/04 05:34:59;;;;;;;10.88;3.30;;;22.90;99.90;;;;;;7339129;19;111896;-80
2022/08/04 05:37:27;;;;;;;14.65;3.80;;;22.90;99.90;;;;;;7341123;19;109544;-80
2022/08/04 05:39:58;;;;;;;11.30;3.50;;;23.00;99.90;;;;;;7339908;19;110855;-80
2022/08/04 05:42:25;;;;;;;9.30;3.38;;;23.00;99.90;;;;;;7339959;19;111616;-80
2022/08/04 05:44:54;;;;;;;8.07;3.20;;;23.00;99.90;;;;;;7337795;19;110509;-80
2022/08/04 05:47:23;;;;;;;8.80;3.30;;;23.10;99.90;;;;;;7336499;19;110430;-80
2022/08/04 05:49:51;;;;;;;9.02;3.28;;;23.10;99.90;;;;;;7339215;19;112223;-78
2022/08/04 05:52:40;;;;;;;9.73;3.05;;;23.20;99.90;;;;;;7335034;19;110607;-79
2022/08/04 05:55:11;;;;;;;8.45;2.95;;;23.20;99.90;;;;;;7344514;19;110515;-80
2022/08/04 05:58:00;;;;;;;9.88;2.55;;;23.30;99.90;;;;;;7338101;19;110885;-80
2022/08/04 06:00:28;;;;;;;8.18;3.08;;;23.40;99.90;;;;;;7339778;19;110468;-80
2022/08/04 06:03:08;;;;;;;11.05;2.70;;;23.40;99.90;;;;;;7338011;19;110579;-80
2022/08/04 06:05:36;;;;;;;5.97;2.88;;;23.40;99.90;;;;;;7335638;19;110101;-80
2022/08/04 06:08:03;;;;;;;13.02;2.90;;;23.50;99.90;;;;;;7335572;19;110150;-82
2022/08/04 06:10:41;;;;;;;17.30;2.95;;;23.60;99.90;;;;;;7338096;19;111269;-81
2022/08/04 06:13:13;;;;;;;9.52;2.90;;;23.50;99.90;;;;;;7337029;19;109286;-78
2022/08/04 06:16:01;;;;;;;8.88;2.63;;;23.60;99.90;;;;;;7338598;19;109462;-80
2022/08/04 06:18:30;;;;;;;6.78;2.25;;;23.70;99.90;;;;;;7343143;19;112084;-80
2022/08/04 06:21:21;;;;;;;6.28;2.42;;;23.80;99.90;;;;;;7338409;19;110425;-80
2022/08/04 06:23:50;;;;;;;10.43;2.45;;;23.80;99.90;;;;;;7337736;19;111486;-81
2022/08/04 06:26:30;;;;;;;7.78;2.10;;;23.90;99.90;;;;;;7335733;19;110786;-81
2022/08/04 06:28:59;;;;;;;13.45;2.00;;;23.90;99.90;;;;;;7338379;19;110591;-81
2022/08/04 06:31:45;;;;;;;9.43;1.85;;;24.00;99.90;;;;;;7335277;19;111095;-79
2022/08/04 06:34:33;;;;;;;9.40;1.95;;;24.10;99.90;;;;;;7336386;19;110959;-80
2022/08/04 06:37:02;;;;;;;6.22;1.70;;;24.20;99.90;;;;;;7338797;19;110442;-80
2022/08/04 06:39:31;;;;;;;10.18;1.80;;;24.30;99.90;;;;;;7344094;19;110057;-80
2022/08/04 06:41:59;;;;;;;9.68;1.52;;;24.30;99.90;;;;;;7338685;19;110590;-81
2022/08/04 06:44:50;;;;;;;9.23;1.67;;;24.40;99.90;;;;;;7342106;19;113667;-81
2022/08/04 06:47:20;;;;;;;10.80;1.75;;;24.60;99.90;;;;;;7345839;19;109081;-82
2022/08/04 06:49:51;;;;;;;7.78;2.00;;;24.60;99.90;;;;;;7345548;19;109613;-81
2022/08/04 06:52:38;;;;;;;4.28;1.40;;;24.60;99.90;;;;;;7344551;19;112973;-82
2022/08/04 06:55:07;;;;;;;4.55;1.38;;;24.70;99.90;;;;;;7345749;19;109344;-81
2022/08/04 06:57:35;;;;;;;8.02;1.67;;;24.70;99.90;;;;;;7345826;19;110054;-81
2022/08/04 07:00:11;;;;;;;6.13;1.70;;;24.80;99.90;;;;;;7344312;19;110125;-81
2022/08/04 07:02:42;;;;;;;9.02;1.52;;;24.80;99.90;;;;;;7351217;19;109109;-82
2022/08/04 07:05:11;;;;;;;8.52;1.58;;;24.90;99.90;;;;;;7345323;19;110130;-82
2022/08/04 07:07:39;;;;;;;6.35;1.50;;;25.00;99.90;;;;;;7345542;19;109200;-81
2022/08/04 07:10:26;;;;;;;5.35;1.52;;;25.00;99.90;;;;;;7345746;19;110473;-81
2022/08/04 07:12:58;;;;;;;4.97;1.27;;;25.10;99.90;;;;;;7343975;19;112118;-82
2022/08/04 07:15:26;;;;;;;6.35;1.50;;;25.30;99.90;;;;;;7339343;19;110749;-82
2022/08/04 07:18:00;;;;;;;5.97;1.25;;;25.40;99.90;;;;;;7341762;19;110488;-82
2022/08/04 07:20:28;;;;;;;5.13;1.45;;;25.40;99.90;;;;;;7340240;19;110117;-81
2022/08/04 07:23:05;;;;;;;6.97;1.52;;;25.40;99.90;;;;;;7345173;19;109236;-81
2022/08/04 07:25:36;;;;;;;5.20;1.35;;;25.40;99.90;;;;;;7348429;19;112678;-82
2022/08/04 07:28:28;;;;;;;6.68;1.50;;;25.40;99.90;;;;;;7344840;19;109486;-81
2022/08/04 07:30:56;;;;;;;7.13;1.60;;;25.60;99.90;;;;;;7344363;19;110282;-81
2022/08/04 07:33:24;;;;;;;7.40;1.55;;;25.60;99.90;;;;;;7342969;19;110136;-82
2022/08/04 07:35:53;;;;;;;7.93;1.20;;;25.70;99.90;;;;;;7344303;19;109394;-82
2022/08/04 07:38:40;;;;;;;5.63;1.30;;;25.80;99.90;;;;;;7343544;19;109385;-82
2022/08/04 07:41:23;;;;;;;9.13;1.23;;;26.00;99.90;;;;;;7343027;19;110102;-79
2022/08/04 07:44:07;;;;;;;5.63;1.25;;;26.10;99.90;;;;;;7343650;19;110853;-80
2022/08/04 07:46:36;;;;;;;7.18;1.63;;;26.10;99.90;;;;;;7342264;19;110019;-81
2022/08/04 07:52:40;;;;;;;8.07;1.45;;;26.20;99.90;;;;;;7343839;19;109251;-81
2022/08/04 07:55:08;;;;;;;19.15;1.75;;;26.10;99.90;;;;;;7342858;19;109940;-79
2022/08/04 07:57:36;;;;;;;6.00;1.50;;;26.10;99.90;;;;;;7343736;19;109248;-86
2022/08/04 08:00:10;;;;;;;9.88;1.67;;;26.10;99.90;;;;;;7342295;19;110452;-81
2022/08/04 08:02:38;;;;;;;29.00;1.73;;;26.20;99.90;;;;;;7343863;19;111333;-80
2022/08/04 08:05:08;;;;;;;6.07;1.40;;;26.30;99.90;;;;;;7343096;19;109246;-80
2022/08/04 08:07:36;;;;;;;7.88;1.30;;;26.40;99.90;;;;;;7343850;19;110405;-80
2022/08/04 08:10:17;;;;;;;12.05;1.50;;;26.50;99.90;;;;;;7342017;19;111188;-81
2022/08/04 08:12:45;;;;;;;6.97;1.48;;;26.60;99.90;;;;;;7346761;19;109338;-81
2022/08/04 08:15:18;;;;;;;2.85;1.00;;;26.70;99.90;;;;;;7343107;19;111509;-81
2022/08/04 08:17:45;;;;;;;11.02;1.30;;;26.70;99.90;;;;;;7342988;19;109264;-81
2022/08/04 08:20:27;;;;;;;4.63;1.30;;;26.80;99.90;;;;;;7335086;19;109594;-80
2022/08/04 08:22:56;;;;;;;8.98;1.67;;;26.80;99.90;;;;;;7342870;19;112065;-83
2022/08/04 08:25:24;;;;;;;7.22;1.27;;;26.90;99.90;;;;;;7343108;19;109172;-81
2022/08/04 08:27:51;;;;;;;7.80;1.58;;;26.90;99.90;;;;;;7343102;19;110416;-80
2022/08/04 08:30:23;;;;;;;6.68;1.30;;;27.00;99.90;;;;;;7342910;19;111313;-84
2022/08/04 08:33:00;;;;;;;7.55;1.00;;;27.00;99.90;;;;;;7342692;19;109091;-81
2022/08/04 08:35:32;;;;;;;6.78;1.15;;;27.10;99.90;;;;;;7347606;19;109364;-81
2022/08/04 08:38:05;;;;;;;14.63;1.42;;;27.10;99.90;;;;;;7340864;19;109362;-83
2022/08/04 08:40:40;;;;;;;7.25;1.67;;;27.20;99.90;;;;;;7342759;19;110612;-82
2022/08/04 08:43:27;;;;;;;7.88;1.35;;;27.30;99.90;;;;;;7341193;19;111360;-82
2022/08/04 08:46:44;;;;;;;7.20;1.08;;;27.30;99.90;;;;;;7342106;19;110623;-82
2022/08/04 08:49:18;;;;;;;7.78;1.70;;;27.30;99.90;;;;;;7343632;19;111644;-83
2022/08/04 08:52:29;;;;;;;9.55;1.45;;;27.40;99.90;;;;;;7340312;19;113104;-81
2022/08/04 08:55:49;;;;;;;4.60;1.10;;;27.40;99.90;;;;;;7349471;19;110869;-81
2022/08/04 08:58:36;;;;;;;7.55;1.50;;;27.30;99.90;;;;;;7352566;19;109407;-80
2022/08/04 09:01:24;;;;;;;5.73;1.30;;;27.30;99.90;;;;;;7349438;19;109040;-81
2022/08/04 09:04:13;;;;;;;8.10;1.77;;;27.30;99.90;;;;;;7348855;19;110582;-81
2022/08/04 09:07:02;;;;;;;7.10;1.48;;;27.30;99.90;;;;;;7348402;19;112128;-81
2022/08/04 09:09:53;;;;;;;13.85;1.67;;;27.20;99.90;;;;;;7348697;19;109205;-79
2022/08/04 09:12:40;;;;;;;12.65;1.70;;;27.10;99.90;;;;;;7348467;19;111562;-81
2022/08/04 09:15:32;;;;;;;7.63;1.50;;;27.00;99.90;;;;;;7348198;19;111206;-83
2022/08/04 09:18:22;;;;;;;14.20;1.90;;;26.90;99.90;;;;;;7348092;19;109249;-80
2022/08/04 09:21:21;;;;;;;8.30;2.08;;;26.80;99.90;;;;;;7345492;19;109483;-80
2022/08/04 09:24:13;;;;;;;9.40;1.98;;;26.80;99.90;;;;;;7348006;19;110108;-81
2022/08/04 09:27:04;;;;;;;9.20;2.05;;;26.80;99.90;;;;;;7346715;19;111870;-85
2022/08/04 09:30:06;;;;;;;7.78;2.28;;;26.80;99.90;;;;;;7348118;19;111132;-81
2022/08/04 09:32:46;;;;;;;10.38;2.65;;;26.80;99.90;;;;;;7347513;19;109176;-81
2022/08/04 09:36:01;;;;;;;9.45;2.03;;;26.80;99.90;;;;;;7347862;19;110603;-82
2022/08/04 09:38:45;;;;;;;9.07;2.65;;;26.70;99.90;;;;;;7345311;19;111238;-80
2022/08/04 09:42:00;;;;;;;17.70;3.20;;;26.70;99.90;;;;;;7348385;19;109774;-83
2022/08/04 09:44:52;;;;;;;9.15;2.70;;;26.60;99.90;;;;;;7347677;19;110401;-81
2022/08/04 09:47:57;;;;;;;11.05;2.90;;;26.50;99.90;;;;;;7347007;19;110410;-81
2022/08/04 09:50:37;;;;;;;17.40;3.20;;;26.50;99.90;;;;;;7352175;19;109265;-81
2022/08/04 09:53:29;;;;;;;9.85;3.60;;;26.40;99.90;;;;;;7346499;19;111349;-81
2022/08/04 09:56:22;;;;;;;12.23;3.78;;;26.40;99.90;;;;;;7341686;19;109215;-80
2022/08/04 09:58:56;;;;;;;12.85;3.25;;;26.20;99.90;;;;;;7346961;19;109416;-81
2022/08/04 10:01:27;;;;;;;7.60;3.00;;;25.90;99.90;;;;;;7346285;19;110081;-81
2022/08/04 10:03:59;;;;;;;10.27;2.83;;;25.90;99.90;;;;;;7347522;19;109036;-81
2022/08/04 10:06:38;;;;;;;11.25;3.47;;;26.00;99.90;;;;;;7347684;19;109895;-81
2022/08/04 10:09:08;;;;;;;12.88;3.05;;;26.00;99.90;;;;;;7340233;19;110197;-82
2022/08/04 10:11:43;;;;;;;15.05;3.47;;;26.00;99.90;;;;;;7334784;19;111588;-84
2022/08/04 10:14:34;;;;;;;18.60;3.35;;;26.10;99.90;;;;;;7339517;19;110998;-84
2022/08/04 10:17:40;;;;;;;10.88;3.45;;;26.10;99.90;;;;;;7335285;19;109999;-85
2022/08/04 10:20:49;;;;;;;8.05;2.90;;;26.20;99.90;;;;;;7334396;19;110633;-84
2022/08/04 10:23:48;;;;;;;11.05;3.17;;;26.20;99.90;;;;;;7337889;19;111237;-84
2022/08/04 10:26:25;;;;;;;15.05;3.35;;;26.20;99.90;;;;;;7334925;19;110114;-85
2022/08/04 10:28:59;;;;;;;9.80;3.10;;;26.10;99.90;;;;;;7336282;19;109482;-84
2022/08/04 10:31:31;;;;;;;9.18;3.13;;;26.10;99.90;;;;;;7335405;19;111874;-86
2022/08/04 10:34:12;;;;;;;9.23;3.20;;;26.20;99.90;;;;;;7336632;19;109629;-84
2022/08/04 10:37:01;;;;;;;10.90;3.30;;;26.20;99.90;;;;;;7338071;19;110508;-85
2022/08/04 10:39:38;;;;;;;8.77;3.17;;;26.10;99.90;;;;;;7338918;19;110539;-84
2022/08/04 10:42:21;;;;;;;7.25;2.90;;;26.10;99.90;;;;;;7334550;19;111112;-85
2022/08/04 10:44:54;;;;;;;9.95;2.83;;;26.00;99.90;;;;;;7336241;19;110896;-84
2022/08/04 10:47:30;;;;;;;8.93;3.60;;;26.00;99.90;;;;;;7337192;19;109450;-84
2022/08/04 10:50:00;;;;;;;7.13;3.13;;;26.00;99.90;;;;;;7334910;19;110514;-84
2022/08/04 10:52:35;;;;;;;8.77;3.63;;;26.10;99.90;;;;;;7337030;19;110828;-83
2022/08/04 10:55:16;;;;;;;9.45;3.15;;;26.10;99.90;;;;;;7332382;19;111134;-78
2022/08/04 10:57:58;;;;;;;8.15;3.40;;;26.20;99.90;;;;;;7329079;19;109571;-78
2022/08/04 11:00:27;;;;;;;10.13;3.28;;;26.30;99.90;;;;;;7336365;19;111925;-77
2022/08/04 11:03:07;;;;;;;6.68;3.42;;;26.40;99.90;;;;;;7339778;19;110162;-78
2022/08/04 11:05:42;;;;;;;10.68;3.33;;;26.60;99.90;;;;;;7335545;19;112683;-78
2022/08/04 11:08:48;;;;;;;7.10;2.78;;;26.70;99.90;;;;;;7334714;19;109990;-77
2022/08/04 11:11:43;;;;;;;8.02;2.80;;;26.80;99.90;;;;;;7332676;19;109811;-78
2022/08/04 11:14:35;;;;;;;;;;;27.00;99.90;;;;;;7334632;19;110335;-78
2022/08/04 11:17:23;;;;;;;8.57;2.90;;;26.80;99.90;;;;;;7339282;19;110371;-78
2022/08/04 11:20:14;;;;;;;7.32;2.08;;;26.90;99.90;;;;;;7333186;19;109564;-78
2022/08/04 11:23:16;;;;;;;5.78;2.28;;;27.10;99.90;;;;;;7334439;19;110023;-77
2022/08/04 11:25:58;;;;;;;4.85;2.40;;;27.10;99.90;;;;;;7341823;19;109257;-78
2022/08/04 11:28:40;;;;;;;7.43;2.28;;;27.20;99.90;;;;;;7331862;19;111188;-78
2022/08/04 11:31:20;;;;;;;7.47;2.33;;;27.50;99.90;;;;;;7335428;19;109175;-79
2022/08/04 11:34:03;;;;;;;8.75;2.53;;;27.70;99.90;;;;;;7334268;19;112331;-79
2022/08/04 11:36:41;;;;;;;8.30;2.35;;;27.80;99.90;;;;;;7335170;19;110764;-79
2022/08/04 11:39:29;;;;;;;7.78;2.40;;;28.00;99.90;;;;;;7334889;19;112730;-80
2022/08/04 11:42:21;;;;;;;5.43;2.30;;;28.10;99.90;;;;;;7332239;19;110198;-79
2022/08/04 11:45:06;;;;;;;5.68;2.50;;;28.10;99.90;;;;;;7335643;19;111216;-79
2022/08/04 11:47:54;;;;;;;4.95;2.00;;;28.20;99.90;;;;;;7335011;19;110596;-79
2022/08/04 11:50:34;;;;;;;6.20;2.33;;;28.30;99.90;;;;;;7340603;19;111342;-79
2022/08/04 11:53:02;;;;;;;4.15;1.98;;;28.30;99.90;;;;;;7336148;19;109302;-78
2022/08/04 11:55:31;;;;;;;9.82;2.50;;;28.30;99.90;;;;;;7333929;19;111601;-79
2022/08/04 11:58:20;;;;;;;7.93;2.65;;;28.30;99.90;;;;;;7330940;19;113082;-78
2022/08/04 12:01:09;;;;;;;8.25;2.35;;;28.20;99.90;;;;;;7335108;19;109921;-78
2022/08/04 12:03:55;;;;;;;4.82;2.00;;;28.10;99.90;;;;;;7335832;19;112257;-78
2022/08/04 12:06:56;;;;;;;8.20;2.30;;;28.00;99.90;;;;;;7334291;19;110793;-79
2022/08/04 12:10:01;;;;;;;5.68;1.73;;;28.10;99.90;;;;;;7335812;19;109935;-79
2022/08/04 12:12:40;;;;;;;6.85;2.25;;;28.20;99.90;;;;;;7335133;19;111270;-78
2022/08/04 12:15:30;;;;;;;6.93;2.10;;;28.30;99.90;;;;;;7338164;19;112270;-79
2022/08/04 12:18:20;;;;;;;5.82;2.03;;;28.30;99.90;;;;;;7334144;19;111355;-79
2022/08/04 12:21:14;;;;;;;8.45;2.50;;;28.30;99.60;;;;;;7332187;19;114344;-81
2022/08/04 12:23:44;;;;;;;6.18;1.95;;;28.20;99.90;;;;;;7332103;19;109890;-79
2022/08/04 12:26:21;;;;;;;8.20;2.58;;;28.30;99.90;;;;;;7341464;19;110111;-78
2022/08/04 12:28:54;;;;;;;11.05;2.83;;;28.50;99.90;;;;;;7340540;19;110558;-80
2022/08/04 12:32:21;;;;;;;6.22;2.20;;;28.50;99.80;;;;;;7340261;19;111136;-80
2022/08/04 12:35:02;;;;;;;5.05;1.80;;;28.70;99.20;;;;;;7333966;19;112778;-79
2022/08/04 12:37:58;;;;;;;6.97;1.73;;;29.00;99.90;;;;;;7337105;19;112410;-79
2022/08/04 12:40:35;;;;;;;13.05;2.47;;;29.30;99.70;;;;;;7340697;19;109422;-79
2022/08/04 12:43:10;;;;;;;8.73;1.80;;;29.50;98.20;;;;;;7335515;19;110820;-79
2022/08/04 12:48:16;;;;;;;8.10;2.50;;;29.80;98.10;;;;;;7340424;19;109927;-78
2022/08/04 12:50:52;;;;;;;5.38;2.17;;;29.90;97.70;;;;;;7339102;19;111179;-80
2022/08/04 12:53:25;;;;;;;5.97;1.60;;;29.90;97.20;;;;;;7340340;19;111317;-80
2022/08/04 12:55:59;;;;;;;11.00;2.47;;;30.10;97.10;;;;;;7339560;19;110714;-79
2022/08/04 12:58:32;;;;;;;6.07;2.25;;;30.30;96.40;;;;;;7341862;19;110232;-80
2022/08/04 13:01:21;;;;;;;5.38;1.65;;;30.30;96.50;;;;;;7343711;19;109441;-80
2022/08/04 13:04:14;;;;;;;6.78;2.00;;;30.40;96.40;;;;;;7345260;19;112341;-79
2022/08/04 13:06:43;;;;;;;8.43;2.15;;;30.60;95.80;;;;;;7342876;19;109266;-80
2022/08/04 13:09:16;;;;;;;8.18;2.17;;;30.60;96.00;;;;;;7342901;19;110508;-79
2022/08/04 13:11:51;;;;;;;6.20;2.33;;;30.70;95.90;;;;;;7343515;19;110109;-80
2022/08/04 13:14:20;;;;;;;35.90;3.33;;;31.00;95.90;;;;;;7341992;19;109461;-79
2022/08/04 13:17:00;;;;;;;5.05;2.40;;;31.10;95.20;;;;;;7342735;19;109941;-81
2022/08/04 13:19:29;;;;;;;8.18;1.90;;;31.10;95.00;;;;;;7341748;19;110133;-80
2022/08/04 13:21:59;;;;;;;4.82;1.70;;;30.90;94.60;;;;;;7342961;19;109938;-83
2022/08/04 13:24:31;;;;;;;5.65;2.17;;;30.90;94.20;;;;;;7347816;19;110503;-80
2022/08/04 13:27:07;;;;;;;6.55;1.60;;;31.10;94.40;;;;;;7340904;19;110660;-89
2022/08/04 13:29:41;;;;;;;3.75;1.75;;;31.30;93.90;;;;;;7340466;19;109861;-89
2022/08/04 13:32:19;;;;;;;5.85;2.10;;;31.30;93.60;;;;;;7339409;19;109794;-80
2022/08/04 13:34:47;;;;;;;4.65;1.27;;;31.30;93.20;;;;;;7339262;19;110883;-81
2022/08/04 13:37:34;;;;;;;12.93;1.58;;;31.50;93.70;;;;;;7341532;19;110666;-81
2022/08/04 13:40:07;;;;;;;4.60;1.27;;;31.80;91.60;;;;;;7341780;19;112635;-82
2022/08/04 13:42:37;;;;;;;6.45;1.60;;;31.60;91.70;;;;;;7340291;19;109570;-81
2022/08/04 13:45:07;;;;;;;4.80;1.20;;;31.60;91.30;;;;;;7342890;19;111513;-81
2022/08/04 13:47:37;;;;;;;7.18;1.35;;;31.40;90.60;;;;;;7347582;19;111242;-81
2022/08/04 13:50:29;;;;;;;5.03;1.75;;;31.40;90.80;;;;;;7341472;19;110587;-82
2022/08/04 13:52:59;;;;;;;6.72;1.63;;;31.60;91.00;;;;;;7342159;19;111265;-81
2022/08/04 13:55:34;;;;;;;3.00;1.40;;;31.70;90.50;;;;;;7340746;19;109797;-81
2022/08/04 13:58:12;;;;;;;4.65;1.55;;;31.70;90.30;;;;;;7341143;19;109444;-80
2022/08/04 14:00:42;;;;;;;5.53;1.60;;;31.40;90.20;;;;;;7342758;19;110780;-81
2022/08/04 14:03:12;;;;;;;3.40;1.40;;;31.20;90.90;;;;;;7341090;19;110624;-79
2022/08/04 14:06:23;;;;;;;6.78;1.90;;;31.40;91.60;;;;;;7342408;19;110966;-81
2022/08/04 14:08:54;;;;;;;5.78;1.38;;;31.50;90.60;;;;;;7342221;19;110828;-82
2022/08/04 14:11:33;;;;;;;3.08;1.55;;;31.60;90.90;;;;;;7346736;19;109621;-81
2022/08/04 14:14:28;;;;;;;5.93;2.13;;;31.90;90.90;;;;;;7342480;19;113201;-81
2022/08/04 14:17:04;;;;;;;5.35;1.90;;;32.00;90.00;;;;;;7341238;19;109207;-81
2022/08/04 14:19:53;;;;;;;5.80;1.33;;;31.90;90.60;;;;;;7341476;19;109225;-81
2022/08/04 14:22:26;;;;;;;7.82;1.92;;;32.00;90.40;;;;;;7341575;19;110287;-81
2022/08/04 14:25:12;;;;;;;6.80;2.33;;;32.00;90.50;;;;;;7341500;19;109878;-81
2022/08/04 14:27:52;;;;;;;4.00;1.63;;;32.20;89.30;;;;;;7342668;19;110932;-83
2022/08/04 14:30:29;;;;;;;4.80;2.60;;;32.20;90.00;;;;;;7338859;19;110449;-82